Time;durP1;ratioP1;P1;durP2;ratioP2;P2;SDS_P1;SDS_P2;PMS_P1;PMS_P2;Temp;Humidity;BMP_temperature;BMP_pressure;BME280_temperature;BME280_humidity;BME280_pressure;Samples;Min_cycle;Max_cycle;Signal;HPM_P1;HPM_P2
2021/12/20 00:01:34;;;;;;;44.83;21.83;;;;;;;;;;4933063;29;20032;-70
2021/12/20 00:04:00;;;;;;;45.95;22.35;;;;;;;;;;4936818;29;20039;-70
2021/12/20 00:06:25;;;;;;;50.53;23.42;;;;;;;;;;4937833;29;20027;-69
2021/12/20 00:08:51;;;;;;;47.80;21.88;;;;;;;;;;4936999;29;20035;-70
2021/12/20 00:11:17;;;;;;;48.25;22.48;;;;;;;;;;4943239;28;20032;-70
2021/12/20 00:13:42;;;;;;;47.13;23.48;;;;;;;;;;4929848;29;20035;-68
2021/12/20 00:16:08;;;;;;;43.83;22.20;;;;;;;;;;4930020;29;20111;-70
2021/12/20 00:18:34;;;;;;;48.17;22.83;;;;;;;;;;4927297;29;20039;-70
2021/12/20 00:20:59;;;;;;;45.78;21.85;;;;;;;;;;4927836;29;20036;-69
2021/12/20 00:23:26;;;;;;;48.60;22.05;;;;;;;;;;4928274;29;20174;-70
2021/12/20 00:25:52;;;;;;;46.47;21.38;;;;;;;;;;4929813;29;20052;-69
2021/12/20 00:28:19;;;;;;;49.78;22.02;;;;;;;;;;4931937;29;20051;-70
2021/12/20 00:30:46;;;;;;;40.25;21.90;;;;;;;;;;4931945;29;20027;-68
2021/12/20 00:33:12;;;;;;;42.53;21.85;;;;;;;;;;4927331;29;20038;-68
2021/12/20 00:35:38;;;;;;;44.97;21.13;;;;;;;;;;4930380;29;20039;-70
2021/12/20 00:40:50;;;;;;;51.15;22.92;;;;;;;;;;4931656;29;20223;-70
2021/12/20 00:43:16;;;;;;;42.08;21.35;;;;;;;;;;4930144;29;20346;-69
2021/12/20 00:45:42;;;;;;;43.15;21.23;;;;;;;;;;4927121;29;20051;-69
2021/12/20 00:48:07;;;;;;;38.22;20.02;;;;;;;;;;4933639;29;20066;-70
2021/12/20 00:50:33;;;;;;;35.45;20.08;;;;;;;;;;4934106;29;20039;-69
2021/12/20 00:52:59;;;;;;;46.53;22.25;;;;;;;;;;4931574;29;20078;-70
2021/12/20 00:55:27;;;;;;;40.03;20.98;;;;;;;;;;4936111;28;20574;-70
2021/12/20 00:57:58;;;;;;;42.40;21.75;;;;;;;;;;4932264;29;20505;-69
2021/12/20 01:00:27;;;;;;;44.55;21.50;;;;;;;;;;4933940;28;20115;-69
2021/12/20 01:02:53;;;;;;;37.88;20.55;;;;;;;;;;4932868;29;20051;-69
2021/12/20 01:05:20;;;;;;;36.20;20.15;;;;;;;;;;4930685;28;20043;-69
2021/12/20 01:07:46;;;;;;;42.65;21.95;;;;;;;;;;4933763;29;20040;-70
2021/12/20 01:10:12;;;;;;;38.50;20.63;;;;;;;;;;4934737;29;20098;-69
2021/12/20 01:12:45;;;;;;;40.25;21.27;;;;;;;;;;4938942;28;20039;-69
2021/12/20 01:15:16;;;;;;;42.50;21.20;;;;;;;;;;4931539;29;20043;-70
2021/12/20 01:17:42;;;;;;;45.60;20.77;;;;;;;;;;4932308;29;20050;-70
2021/12/20 01:20:09;;;;;;;34.88;20.30;;;;;;;;;;4926032;29;20055;-70
2021/12/20 01:22:34;;;;;;;42.95;20.27;;;;;;;;;;4926963;29;20402;-70
2021/12/20 01:25:00;;;;;;;41.95;20.85;;;;;;;;;;4926952;29;20484;-70
2021/12/20 01:27:26;;;;;;;48.25;21.40;;;;;;;;;;4927891;29;20054;-70
2021/12/20 01:29:51;;;;;;;38.90;21.08;;;;;;;;;;4927079;29;20094;-70
2021/12/20 01:32:17;;;;;;;45.25;21.90;;;;;;;;;;4911628;29;20051;-70
2021/12/20 01:34:43;;;;;;;43.53;20.77;;;;;;;;;;4929157;29;20127;-70
2021/12/20 01:37:08;;;;;;;37.70;20.17;;;;;;;;;;4927625;29;20392;-70
2021/12/20 01:39:34;;;;;;;46.13;22.00;;;;;;;;;;4927758;29;20086;-70
2021/12/20 01:42:03;;;;;;;47.33;21.20;;;;;;;;;;4927572;29;20031;-69
2021/12/20 01:44:30;;;;;;;40.78;20.73;;;;;;;;;;4928101;29;20031;-68
2021/12/20 01:46:56;;;;;;;38.58;20.83;;;;;;;;;;4925374;29;20058;-70
2021/12/20 01:49:22;;;;;;;49.03;20.67;;;;;;;;;;4925933;29;20622;-70
2021/12/20 01:54:15;;;;;;;45.40;22.88;;;;;;;;;;4928828;29;20035;-71
2021/12/20 01:56:43;;;;;;;47.00;22.27;;;;;;;;;;4923788;29;20126;-69
2021/12/20 01:59:09;;;;;;;42.55;20.65;;;;;;;;;;4923788;29;20387;-70
2021/12/20 02:01:36;;;;;;;45.47;23.35;;;;;;;;;;4931261;29;20078;-69
2021/12/20 02:04:06;;;;;;;55.97;23.13;;;;;;;;;;4923362;28;20047;-69
2021/12/20 02:06:35;;;;;;;48.75;21.23;;;;;;;;;;4924957;29;20082;-70
2021/12/20 02:09:05;;;;;;;37.95;20.25;;;;;;;;;;4926674;29;20113;-70
2021/12/20 02:11:31;;;;;;;47.38;21.70;;;;;;;;;;4925751;29;20531;-70
2021/12/20 02:13:57;;;;;;;43.10;20.42;;;;;;;;;;4918397;29;20095;-69
2021/12/20 02:16:23;;;;;;;43.25;21.58;;;;;;;;;;4929781;29;20067;-70
2021/12/20 02:18:49;;;;;;;48.03;22.75;;;;;;;;;;4936588;28;20031;-70
2021/12/20 02:21:15;;;;;;;43.58;21.05;;;;;;;;;;4935915;28;20038;-69
2021/12/20 02:23:40;;;;;;;45.95;23.20;;;;;;;;;;4929949;29;20388;-71
2021/12/20 02:26:07;;;;;;;49.08;23.52;;;;;;;;;;4937304;29;20054;-70
2021/12/20 02:28:39;;;;;;;45.85;23.55;;;;;;;;;;4934096;29;20511;-68
2021/12/20 02:37:01;;;;;;;46.42;21.33;;;;;;;;;;4930672;29;20118;-70
2021/12/20 02:39:27;;;;;;;57.67;23.63;;;;;;;;;;4934473;29;20043;-70
2021/12/20 02:41:53;;;;;;;46.63;20.38;;;;;;;;;;4942660;28;20453;-70
2021/12/20 02:44:21;;;;;;;51.90;23.50;;;;;;;;;;4939749;28;20039;-70
2021/12/20 02:49:21;;;;;;;49.55;22.08;;;;;;;;;;4940702;29;20800;-70
2021/12/20 02:51:50;;;;;;;39.67;21.42;;;;;;;;;;4935378;28;20050;-70
2021/12/20 02:54:19;;;;;;;39.58;20.00;;;;;;;;;;4935139;28;20043;-70
2021/12/20 02:56:45;;;;;;;42.63;21.27;;;;;;;;;;4939169;29;20499;-70
2021/12/20 02:59:11;;;;;;;40.83;20.67;;;;;;;;;;4938818;29;20306;-70
2021/12/20 03:01:40;;;;;;;44.10;21.33;;;;;;;;;;4940116;28;20153;-70
2021/12/20 03:04:06;;;;;;;40.17;20.83;;;;;;;;;;4937955;29;20333;-70
2021/12/20 03:06:41;;;;;;;36.28;20.50;;;;;;;;;;4946118;23;20090;-70
2021/12/20 03:09:10;;;;;;;42.95;20.98;;;;;;;;;;4953695;28;20311;-70
2021/12/20 03:11:37;;;;;;;46.05;22.00;;;;;;;;;;4953653;28;20039;-70
2021/12/20 03:14:11;;;;;;;45.72;22.40;;;;;;;;;;4956669;28;20046;-70
2021/12/20 03:16:37;;;;;;;41.92;21.52;;;;;;;;;;4957501;28;20035;-70
2021/12/20 03:19:04;;;;;;;42.72;20.98;;;;;;;;;;4956308;28;20050;-69
2021/12/20 03:21:30;;;;;;;44.55;21.33;;;;;;;;;;4955177;28;20070;-69
2021/12/20 03:23:56;;;;;;;36.60;19.90;;;;;;;;;;4952259;28;20419;-71
2021/12/20 03:26:22;;;;;;;41.47;21.63;;;;;;;;;;4958605;28;20046;-70
2021/12/20 03:28:47;;;;;;;40.05;21.27;;;;;;;;;;4957510;28;20121;-70
2021/12/20 03:31:14;;;;;;;39.00;21.65;;;;;;;;;;4953668;28;20108;-70
2021/12/20 03:33:39;;;;;;;34.47;19.60;;;;;;;;;;4954523;28;20189;-69
2021/12/20 03:36:05;;;;;;;32.22;18.60;;;;;;;;;;4946122;28;20487;-70
2021/12/20 03:38:31;;;;;;;43.17;20.55;;;;;;;;;;4953434;28;20039;-71
2021/12/20 03:40:56;;;;;;;43.35;21.52;;;;;;;;;;4951325;28;20034;-70
2021/12/20 03:43:24;;;;;;;42.50;20.45;;;;;;;;;;4956511;28;20089;-70
2021/12/20 03:45:56;;;;;;;45.13;21.33;;;;;;;;;;4953456;28;20049;-70
2021/12/20 03:48:22;;;;;;;37.50;20.20;;;;;;;;;;4953957;28;20070;-69
2021/12/20 03:50:48;;;;;;;42.72;20.73;;;;;;;;;;4953634;28;20081;-70
2021/12/20 03:53:14;;;;;;;54.70;22.58;;;;;;;;;;4952416;28;20038;-71
2021/12/20 03:55:40;;;;;;;41.63;20.58;;;;;;;;;;4948672;28;20054;-71
2021/12/20 03:58:06;;;;;;;50.17;21.95;;;;;;;;;;4956961;28;20038;-70
2021/12/20 04:00:32;;;;;;;40.72;20.40;;;;;;;;;;4954146;28;20085;-70
2021/12/20 04:02:58;;;;;;;48.28;21.77;;;;;;;;;;4953900;28;20043;-69
2021/12/20 04:05:24;;;;;;;46.88;21.73;;;;;;;;;;4953019;28;20035;-71
2021/12/20 04:07:49;;;;;;;58.85;23.45;;;;;;;;;;4937926;29;20035;-69
2021/12/20 04:10:16;;;;;;;55.78;22.38;;;;;;;;;;4935529;29;20035;-70
2021/12/20 04:12:41;;;;;;;53.63;21.48;;;;;;;;;;4944125;29;20527;-70
2021/12/20 04:15:07;;;;;;;44.25;22.00;;;;;;;;;;4941859;28;20031;-70
2021/12/20 04:17:33;;;;;;;85.82;23.40;;;;;;;;;;4940762;29;20043;-70
2021/12/20 04:19:59;;;;;;;40.22;20.63;;;;;;;;;;4938389;29;20083;-70
2021/12/20 04:22:24;;;;;;;41.40;20.00;;;;;;;;;;4945254;29;20539;-69
2021/12/20 04:24:50;;;;;;;41.28;21.30;;;;;;;;;;4938298;29;20042;-71
2021/12/20 04:27:15;;;;;;;40.10;20.27;;;;;;;;;;4940384;29;20326;-69
2021/12/20 04:29:41;;;;;;;46.08;21.20;;;;;;;;;;4950349;28;20042;-69
2021/12/20 04:32:07;;;;;;;44.15;21.50;;;;;;;;;;4946660;28;20139;-69
2021/12/20 04:34:33;;;;;;;42.20;20.17;;;;;;;;;;4938464;29;20051;-69
2021/12/20 04:36:59;;;;;;;36.83;20.77;;;;;;;;;;4935659;29;20043;-70
2021/12/20 04:39:29;;;;;;;46.70;22.77;;;;;;;;;;4947072;29;20039;-71
2021/12/20 04:41:55;;;;;;;40.28;20.58;;;;;;;;;;4945896;29;20046;-70
2021/12/20 04:44:21;;;;;;;40.13;19.90;;;;;;;;;;4938831;29;20035;-70
2021/12/20 04:46:46;;;;;;;44.78;20.92;;;;;;;;;;4944792;29;20039;-70
2021/12/20 04:49:12;;;;;;;39.40;19.48;;;;;;;;;;4945779;29;20130;-70
2021/12/20 04:51:37;;;;;;;38.38;20.38;;;;;;;;;;4944514;29;20043;-70
2021/12/20 04:54:03;;;;;;;40.65;19.90;;;;;;;;;;4948624;29;20043;-70
2021/12/20 04:56:29;;;;;;;41.05;21.05;;;;;;;;;;4943489;29;20071;-69
2021/12/20 04:58:54;;;;;;;42.83;21.10;;;;;;;;;;4950996;29;20035;-70
2021/12/20 05:01:20;;;;;;;40.40;19.73;;;;;;;;;;4943035;29;20490;-70
2021/12/20 05:03:46;;;;;;;36.03;19.98;;;;;;;;;;4942547;29;20039;-70
2021/12/20 05:06:11;;;;;;;44.20;20.65;;;;;;;;;;4939205;29;20126;-70
2021/12/20 05:08:46;;;;;;;42.05;20.10;;;;;;;;;;4944151;28;20043;-69
2021/12/20 05:11:13;;;;;;;37.85;19.58;;;;;;;;;;4937087;29;20047;-70
2021/12/20 05:13:38;;;;;;;34.92;18.75;;;;;;;;;;4944035;29;20054;-70
2021/12/20 05:16:04;;;;;;;37.13;19.13;;;;;;;;;;4943905;29;20039;-70
2021/12/20 05:18:30;;;;;;;39.22;19.67;;;;;;;;;;4936719;29;20031;-70
2021/12/20 05:20:56;;;;;;;43.83;20.48;;;;;;;;;;4944737;29;20043;-70
2021/12/20 05:23:22;;;;;;;36.13;20.58;;;;;;;;;;4948337;28;20501;-70
2021/12/20 05:25:48;;;;;;;42.08;19.85;;;;;;;;;;4937732;29;20115;-71
2021/12/20 05:28:13;;;;;;;37.05;19.60;;;;;;;;;;4937972;29;20118;-69
2021/12/20 05:30:39;;;;;;;36.97;18.88;;;;;;;;;;4942557;29;20518;-71
2021/12/20 05:33:05;;;;;;;34.80;19.80;;;;;;;;;;4941319;29;20039;-71
2021/12/20 05:35:31;;;;;;;38.67;19.73;;;;;;;;;;4937612;29;20050;-69
2021/12/20 05:37:58;;;;;;;42.72;22.38;;;;;;;;;;4942145;28;20046;-71
2021/12/20 05:40:25;;;;;;;41.47;21.17;;;;;;;;;;4943431;29;20612;-71
2021/12/20 05:42:51;;;;;;;45.58;21.70;;;;;;;;;;4939232;29;20040;-70
2021/12/20 05:45:18;;;;;;;40.45;21.13;;;;;;;;;;4937007;28;20328;-72
2021/12/20 05:47:44;;;;;;;42.47;21.05;;;;;;;;;;4943517;29;20050;-70
2021/12/20 05:50:12;;;;;;;50.83;21.38;;;;;;;;;;4946325;29;20130;-70
2021/12/20 05:52:39;;;;;;;41.17;20.70;;;;;;;;;;4943334;29;20031;-70
2021/12/20 05:55:07;;;;;;;43.47;21.10;;;;;;;;;;4942486;28;20035;-70
2021/12/20 05:57:33;;;;;;;38.05;21.30;;;;;;;;;;4938608;29;20037;-69
2021/12/20 06:00:00;;;;;;;46.20;21.40;;;;;;;;;;4941161;29;20046;-69
2021/12/20 06:02:26;;;;;;;41.08;20.48;;;;;;;;;;4944901;28;20047;-70
2021/12/20 06:04:51;;;;;;;43.38;22.13;;;;;;;;;;4944725;29;20042;-71
2021/12/20 06:07:18;;;;;;;46.50;22.13;;;;;;;;;;4941942;28;20526;-70
2021/12/20 06:09:45;;;;;;;50.97;22.70;;;;;;;;;;4937344;28;20035;-71
2021/12/20 06:12:10;;;;;;;36.53;21.33;;;;;;;;;;4943716;28;20034;-70
2021/12/20 06:14:36;;;;;;;45.60;23.00;;;;;;;;;;4934253;28;20710;-70
2021/12/20 06:17:02;;;;;;;39.58;21.20;;;;;;;;;;4944397;29;20098;-70
2021/12/20 06:19:27;;;;;;;37.63;19.88;;;;;;;;;;4944512;28;20027;-70
2021/12/20 06:21:55;;;;;;;43.38;21.42;;;;;;;;;;4942412;29;20058;-70
2021/12/20 06:24:23;;;;;;;49.40;21.98;;;;;;;;;;4936873;28;20027;-70
2021/12/20 06:26:50;;;;;;;41.53;19.73;;;;;;;;;;4937783;29;20073;-70
2021/12/20 06:29:17;;;;;;;44.20;21.58;;;;;;;;;;4935055;28;20117;-70
2021/12/20 06:31:43;;;;;;;46.38;21.73;;;;;;;;;;4942014;29;20046;-70
2021/12/20 06:34:09;;;;;;;53.97;21.73;;;;;;;;;;4932715;29;20118;-70
2021/12/20 06:36:35;;;;;;;46.95;21.50;;;;;;;;;;4943500;28;20624;-70
2021/12/20 06:39:02;;;;;;;46.17;20.23;;;;;;;;;;4939383;29;20122;-70
2021/12/20 06:41:28;;;;;;;41.83;20.63;;;;;;;;;;4941873;28;20403;-71
2021/12/20 06:43:54;;;;;;;51.70;22.02;;;;;;;;;;4945173;29;20509;-71
2021/12/20 06:46:21;;;;;;;43.15;20.50;;;;;;;;;;4944351;28;20040;-71
2021/12/20 06:48:46;;;;;;;47.28;22.77;;;;;;;;;;4936279;29;20040;-70
2021/12/20 06:51:12;;;;;;;50.00;21.23;;;;;;;;;;4933851;28;20036;-70
2021/12/20 06:53:38;;;;;;;122.70;36.08;;;;;;;;;;4943251;28;20125;-70
2021/12/20 06:56:04;;;;;;;304.95;118.80;;;;;;;;;;4950796;28;20047;-71
2021/12/20 06:58:29;;;;;;;146.40;55.00;;;;;;;;;;4930887;29;20043;-72
2021/12/20 07:00:55;;;;;;;202.20;81.53;;;;;;;;;;4938668;28;20558;-70
2021/12/20 07:03:22;;;;;;;49.33;24.02;;;;;;;;;;4939009;29;20039;-71
2021/12/20 07:05:48;;;;;;;64.07;28.52;;;;;;;;;;4936416;28;20134;-69
2021/12/20 07:08:15;;;;;;;40.50;20.95;;;;;;;;;;4940635;28;20035;-70
2021/12/20 07:10:41;;;;;;;45.97;21.83;;;;;;;;;;4939773;28;20118;-71
2021/12/20 07:13:08;;;;;;;41.78;21.77;;;;;;;;;;4942510;28;20045;-71
2021/12/20 07:15:34;;;;;;;48.78;23.42;;;;;;;;;;4944853;28;20070;-71
2021/12/20 07:18:00;;;;;;;52.30;24.42;;;;;;;;;;4944888;28;20484;-71
2021/12/20 07:20:26;;;;;;;49.13;26.92;;;;;;;;;;4940067;28;20043;-72
2021/12/20 07:22:51;;;;;;;41.10;22.23;;;;;;;;;;4944892;28;20094;-72
2021/12/20 07:25:19;;;;;;;46.17;25.83;;;;;;;;;;4948682;29;20503;-71
2021/12/20 07:27:48;;;;;;;50.05;26.67;;;;;;;;;;4944817;29;20043;-70
2021/12/20 07:30:13;;;;;;;38.97;21.30;;;;;;;;;;4944569;29;20046;-70
2021/12/20 07:32:39;;;;;;;41.05;21.50;;;;;;;;;;4944221;28;20046;-71
2021/12/20 07:35:05;;;;;;;36.25;22.02;;;;;;;;;;4946327;29;20035;-71
2021/12/20 07:37:30;;;;;;;46.55;23.88;;;;;;;;;;4942908;29;20046;-70
2021/12/20 07:39:56;;;;;;;41.95;22.08;;;;;;;;;;4945140;29;20404;-70
2021/12/20 07:42:22;;;;;;;47.50;20.77;;;;;;;;;;4941721;28;20043;-71
2021/12/20 07:44:48;;;;;;;38.20;21.60;;;;;;;;;;4949717;28;20039;-71
2021/12/20 07:47:13;;;;;;;46.00;22.63;;;;;;;;;;4948143;29;20046;-71
2021/12/20 07:49:39;;;;;;;38.17;20.73;;;;;;;;;;4943587;29;20035;-72
2021/12/20 07:52:05;;;;;;;38.03;20.60;;;;;;;;;;4947023;29;20092;-72
2021/12/20 07:54:30;;;;;;;36.80;20.65;;;;;;;;;;4949119;29;20051;-73
2021/12/20 07:56:57;;;;;;;46.10;21.42;;;;;;;;;;4948642;28;20039;-71
2021/12/20 07:59:22;;;;;;;43.63;21.15;;;;;;;;;;4943315;28;20039;-71
2021/12/20 08:01:49;;;;;;;35.58;20.45;;;;;;;;;;4949199;28;20047;-70
2021/12/20 08:04:15;;;;;;;44.15;22.23;;;;;;;;;;4927690;29;20027;-70
2021/12/20 08:06:43;;;;;;;44.08;21.85;;;;;;;;;;4948995;29;20054;-70
2021/12/20 08:09:10;;;;;;;35.92;20.25;;;;;;;;;;4947144;28;20189;-70
2021/12/20 08:11:36;;;;;;;38.10;20.42;;;;;;;;;;4941461;28;20047;-71
2021/12/20 08:14:03;;;;;;;42.35;22.05;;;;;;;;;;4937408;29;20044;-71
2021/12/20 08:16:29;;;;;;;39.72;21.23;;;;;;;;;;4941515;29;20098;-71
2021/12/20 08:18:55;;;;;;;35.33;20.48;;;;;;;;;;4940410;28;20541;-71
2021/12/20 08:21:21;;;;;;;32.75;19.75;;;;;;;;;;4959557;28;20051;-71
2021/12/20 08:23:48;;;;;;;39.00;21.63;;;;;;;;;;4946414;29;20035;-70
2021/12/20 08:26:14;;;;;;;39.08;21.95;;;;;;;;;;4942555;29;20541;-71
2021/12/20 08:28:40;;;;;;;31.50;21.35;;;;;;;;;;4946019;28;20035;-71
2021/12/20 08:31:08;;;;;;;38.30;21.58;;;;;;;;;;4945135;29;20488;-71
2021/12/20 08:33:34;;;;;;;42.22;21.83;;;;;;;;;;4944455;29;20134;-71
2021/12/20 08:36:01;;;;;;;40.47;21.05;;;;;;;;;;4946822;28;20123;-72
2021/12/20 08:38:26;;;;;;;34.92;21.67;;;;;;;;;;4946965;29;20035;-72
2021/12/20 08:40:52;;;;;;;35.20;21.20;;;;;;;;;;4944847;28;20031;-71
2021/12/20 08:43:19;;;;;;;34.80;21.02;;;;;;;;;;4943372;29;20492;-72
2021/12/20 08:45:45;;;;;;;35.45;19.98;;;;;;;;;;4946864;28;20042;-71
2021/12/20 08:48:11;;;;;;;30.73;21.30;;;;;;;;;;4940127;29;20404;-71
2021/12/20 08:50:38;;;;;;;32.60;21.15;;;;;;;;;;4941884;29;20242;-70
2021/12/20 08:53:04;;;;;;;39.47;20.95;;;;;;;;;;4946850;29;20043;-71
2021/12/20 08:55:30;;;;;;;39.63;22.25;;;;;;;;;;4943720;28;20492;-70
2021/12/20 08:57:56;;;;;;;34.80;21.90;;;;;;;;;;4945946;28;20031;-71
2021/12/20 09:00:29;;;;;;;37.40;22.40;;;;;;;;;;4942077;28;20036;-71
2021/12/20 09:02:55;;;;;;;36.92;21.60;;;;;;;;;;4945777;28;20043;-72
2021/12/20 09:05:23;;;;;;;35.30;22.10;;;;;;;;;;4953829;28;20486;-71
2021/12/20 09:07:49;;;;;;;36.40;21.52;;;;;;;;;;4948474;28;20039;-70
2021/12/20 09:10:15;;;;;;;31.77;21.48;;;;;;;;;;4953263;28;20045;-71
2021/12/20 09:12:43;;;;;;;34.42;22.05;;;;;;;;;;4949096;28;20032;-71
2021/12/20 09:15:15;;;;;;;37.17;22.00;;;;;;;;;;4952620;28;20036;-71
2021/12/20 09:17:45;;;;;;;36.88;20.20;;;;;;;;;;4951141;28;20290;-70
2021/12/20 09:20:12;;;;;;;37.92;23.65;;;;;;;;;;4947497;28;20107;-70
2021/12/20 09:22:50;;;;;;;32.88;21.08;;;;;;;;;;4951218;28;20557;-72
2021/12/20 09:25:26;;;;;;;33.90;20.83;;;;;;;;;;4954678;28;20137;-71
2021/12/20 09:27:54;;;;;;;32.97;19.83;;;;;;;;;;4954518;28;20093;-72
2021/12/20 09:30:21;;;;;;;33.90;19.92;;;;;;;;;;4951889;28;20043;-71
2021/12/20 09:32:47;;;;;;;31.30;20.20;;;;;;;;;;4954227;28;20038;-72
2021/12/20 09:35:13;;;;;;;31.85;20.17;;;;;;;;;;4957345;28;20035;-72
2021/12/20 09:37:39;;;;;;;33.90;20.30;;;;;;;;;;4946961;28;20093;-72
2021/12/20 09:40:12;;;;;;;28.90;19.30;;;;;;;;;;4956097;28;20312;-71
2021/12/20 09:42:48;;;;;;;30.80;19.83;;;;;;;;;;4950235;28;20035;-71
2021/12/20 09:45:20;;;;;;;33.08;20.08;;;;;;;;;;4938838;29;20032;-71
2021/12/20 09:47:47;;;;;;;32.15;20.00;;;;;;;;;;4938814;29;20035;-72
2021/12/20 09:50:14;;;;;;;30.00;19.70;;;;;;;;;;4948873;29;20035;-72
2021/12/20 09:52:42;;;;;;;27.98;18.85;;;;;;;;;;4947572;28;20062;-71
2021/12/20 09:55:09;;;;;;;28.50;21.48;;;;;;;;;;4946881;29;20435;-70
2021/12/20 09:57:35;;;;;;;25.77;20.55;;;;;;;;;;4944782;29;20042;-71
2021/12/20 10:00:07;;;;;;;28.13;21.80;;;;;;;;;;4950667;29;20047;-70
2021/12/20 10:02:43;;;;;;;31.77;20.60;;;;;;;;;;4948024;29;20042;-71
2021/12/20 10:05:12;;;;;;;32.75;21.45;;;;;;;;;;4948815;29;20036;-71
2021/12/20 10:07:39;;;;;;;29.75;21.67;;;;;;;;;;4946663;29;20062;-72
2021/12/20 10:10:06;;;;;;;36.92;24.08;;;;;;;;;;4935278;28;20071;-71
2021/12/20 10:12:32;;;;;;;39.38;24.17;;;;;;;;;;4949244;29;20043;-70
2021/12/20 10:15:10;;;;;;;32.03;22.35;;;;;;;;;;4941577;28;20035;-71
2021/12/20 10:17:55;;;;;;;34.55;21.80;;;;;;;;;;4928950;28;20535;-70
2021/12/20 10:20:23;;;;;;;34.30;22.73;;;;;;;;;;4943256;28;20503;-72
2021/12/20 10:22:53;;;;;;;32.58;21.63;;;;;;;;;;4944641;28;20046;-73
2021/12/20 10:25:22;;;;;;;22.15;15.55;;;;;;;;;;4945172;29;20439;-70
2021/12/20 10:27:48;;;;;;;21.02;15.65;;;;;;;;;;4944578;28;20050;-73
2021/12/20 10:30:29;;;;;;;24.13;16.63;;;;;;;;;;4945971;28;20039;-71
2021/12/20 10:32:56;;;;;;;25.10;18.98;;;;;;;;;;4941714;29;20399;-70
2021/12/20 10:35:37;;;;;;;25.67;19.40;;;;;;;;;;4944435;29;20307;-71
2021/12/20 10:38:16;;;;;;;28.88;21.45;;;;;;;;;;4938329;28;20036;-72
2021/12/20 10:40:50;;;;;;;29.70;20.27;;;;;;;;;;4945295;29;20043;-71
2021/12/20 10:43:29;;;;;;;29.35;21.00;;;;;;;;;;4944716;28;20043;-71
2021/12/20 10:45:55;;;;;;;27.23;19.80;;;;;;;;;;4950971;28;20075;-71
2021/12/20 10:48:21;;;;;;;31.15;20.02;;;;;;;;;;4938899;28;20027;-71
2021/12/20 10:50:47;;;;;;;30.42;20.50;;;;;;;;;;4947654;28;20038;-70
2021/12/20 10:53:25;;;;;;;27.70;19.52;;;;;;;;;;4948079;29;20035;-70
2021/12/20 10:55:54;;;;;;;27.45;19.48;;;;;;;;;;4944556;28;20045;-70
2021/12/20 10:58:35;;;;;;;23.48;19.38;;;;;;;;;;4942023;29;20055;-70
2021/12/20 11:01:12;;;;;;;28.40;19.75;;;;;;;;;;4949778;29;20043;-70
2021/12/20 11:03:40;;;;;;;26.98;19.27;;;;;;;;;;4949773;28;21015;-70
2021/12/20 11:06:41;;;;;;;28.30;19.08;;;;;;;;;;4949691;28;20504;-71
2021/12/20 11:09:08;;;;;;;25.23;18.48;;;;;;;;;;4949128;28;20043;-69
2021/12/20 11:11:41;;;;;;;28.77;19.45;;;;;;;;;;4942890;29;20119;-70
2021/12/20 11:14:09;;;;;;;26.17;18.48;;;;;;;;;;4948482;28;20043;-71
2021/12/20 11:16:48;;;;;;;24.38;19.00;;;;;;;;;;4945710;28;20522;-71
2021/12/20 11:19:30;;;;;;;22.13;17.00;;;;;;;;;;4943054;28;20049;-69
2021/12/20 11:21:58;;;;;;;20.60;16.70;;;;;;;;;;4946430;29;20494;-70
2021/12/20 11:24:31;;;;;;;20.75;17.65;;;;;;;;;;4948980;28;20573;-70
2021/12/20 11:26:59;;;;;;;18.17;15.70;;;;;;;;;;4945005;28;20098;-71
2021/12/20 11:29:25;;;;;;;18.50;16.15;;;;;;;;;;4950486;29;20039;-71
2021/12/20 11:31:53;;;;;;;18.15;15.23;;;;;;;;;;4950171;29;20039;-70
2021/12/20 11:34:19;;;;;;;20.25;17.42;;;;;;;;;;4953449;29;20050;-70
2021/12/20 11:36:45;;;;;;;21.80;16.27;;;;;;;;;;4948033;28;20518;-70
2021/12/20 11:39:11;;;;;;;23.15;16.88;;;;;;;;;;4946794;29;20043;-71
2021/12/20 11:41:37;;;;;;;24.63;16.85;;;;;;;;;;4948068;29;20078;-70
2021/12/20 11:44:06;;;;;;;20.75;16.60;;;;;;;;;;4942358;28;20065;-70
2021/12/20 11:46:41;;;;;;;21.40;18.52;;;;;;;;;;4949637;29;20047;-71
2021/12/20 11:49:08;;;;;;;21.80;16.70;;;;;;;;;;4942547;29;20336;-71
2021/12/20 11:52:01;;;;;;;20.20;17.52;;;;;;;;;;4940465;29;20035;-72
2021/12/20 11:54:32;;;;;;;22.42;17.25;;;;;;;;;;4946688;28;20050;-70
2021/12/20 11:56:58;;;;;;;23.35;17.45;;;;;;;;;;4945043;29;20087;-70
2021/12/20 11:59:50;;;;;;;23.17;16.45;;;;;;;;;;4940636;29;20546;-72
2021/12/20 12:02:21;;;;;;;23.40;18.08;;;;;;;;;;4942873;28;20344;-72
2021/12/20 12:05:05;;;;;;;23.60;16.80;;;;;;;;;;4948078;29;20031;-73
2021/12/20 12:07:38;;;;;;;21.40;16.38;;;;;;;;;;4942669;29;20126;-71
2021/12/20 12:10:14;;;;;;;35.97;23.63;;;;;;;;;;4940698;29;20047;-69
2021/12/20 12:12:43;;;;;;;23.65;16.77;;;;;;;;;;4946452;29;20040;-70
2021/12/20 12:15:20;;;;;;;27.83;18.00;;;;;;;;;;4943484;29;20511;-71
2021/12/20 12:17:59;;;;;;;26.38;19.45;;;;;;;;;;4942775;29;20073;-70
2021/12/20 12:20:52;;;;;;;30.08;21.55;;;;;;;;;;4943234;28;20292;-71
2021/12/20 12:23:22;;;;;;;23.88;17.25;;;;;;;;;;4944896;29;20032;-70
2021/12/20 12:26:00;;;;;;;21.10;14.10;;;;;;;;;;4939744;29;20043;-69
2021/12/20 12:28:48;;;;;;;20.92;15.35;;;;;;;;;;4945713;29;20035;-70
2021/12/20 12:31:13;;;;;;;20.15;14.95;;;;;;;;;;4944213;29;20047;-69
2021/12/20 12:33:40;;;;;;;15.73;14.23;;;;;;;;;;4943372;28;20043;-71
2021/12/20 12:36:30;;;;;;;19.90;14.32;;;;;;;;;;4944154;29;20039;-71
2021/12/20 12:39:01;;;;;;;21.02;15.95;;;;;;;;;;4944648;29;20039;-70
2021/12/20 12:41:41;;;;;;;20.85;15.32;;;;;;;;;;4940622;28;20384;-70
2021/12/20 12:44:20;;;;;;;20.20;14.90;;;;;;;;;;4944076;29;20516;-70
2021/12/20 12:47:08;;;;;;;21.02;14.98;;;;;;;;;;4943334;29;20043;-70
2021/12/20 12:50:04;;;;;;;18.75;14.98;;;;;;;;;;4934484;28;20042;-70
2021/12/20 12:52:34;;;;;;;20.65;14.90;;;;;;;;;;4909147;29;20440;-71
2021/12/20 12:55:07;;;;;;;19.02;15.05;;;;;;;;;;4903595;29;20397;-73
2021/12/20 12:57:38;;;;;;;20.15;15.35;;;;;;;;;;4906371;29;20050;-72
2021/12/20 13:00:07;;;;;;;18.30;14.98;;;;;;;;;;4912038;29;20047;-73
2021/12/20 13:02:42;;;;;;;19.42;15.30;;;;;;;;;;4907340;29;20051;-69
2021/12/20 13:05:15;;;;;;;21.10;15.48;;;;;;;;;;4907633;29;20435;-70
2021/12/20 13:07:41;;;;;;;25.38;16.67;;;;;;;;;;4904745;29;20579;-70
2021/12/20 13:10:11;;;;;;;25.00;17.15;;;;;;;;;;4904604;29;20066;-69
2021/12/20 13:12:58;;;;;;;22.35;17.40;;;;;;;;;;4905951;29;20388;-70
2021/12/20 13:18:06;;;;;;;26.92;17.52;;;;;;;;;;4912748;29;20044;-72
2021/12/20 13:20:35;;;;;;;25.33;16.08;;;;;;;;;;4905490;29;20228;-71
2021/12/20 13:23:19;;;;;;;;;;;;;;;;;;4904983;29;20048;-71
2021/12/20 13:25:46;;;;;;;24.85;16.88;;;;;;;;;;4904441;29;20521;-72
2021/12/20 13:28:26;;;;;;;24.08;16.92;;;;;;;;;;4913779;29;20549;-70
2021/12/20 13:30:58;;;;;;;19.30;15.82;;;;;;;;;;4939938;28;20507;-71
2021/12/20 13:33:26;;;;;;;23.27;17.13;;;;;;;;;;4938498;29;20509;-69
2021/12/20 13:35:53;;;;;;;23.58;16.90;;;;;;;;;;4944686;28;20035;-71
2021/12/20 13:38:33;;;;;;;26.02;16.45;;;;;;;;;;4937704;29;20408;-72
2021/12/20 13:41:02;;;;;;;20.42;15.43;;;;;;;;;;4941972;29;20043;-72
2021/12/20 13:43:41;;;;;;;23.13;15.45;;;;;;;;;;4937215;29;20508;-71
2021/12/20 13:46:18;;;;;;;19.48;15.73;;;;;;;;;;4941439;28;20050;-72
2021/12/20 13:48:49;;;;;;;20.88;15.00;;;;;;;;;;4931659;29;20465;-72
2021/12/20 13:51:15;;;;;;;14.90;13.40;;;;;;;;;;4932925;28;20052;-71
2021/12/20 13:53:41;;;;;;;16.05;13.50;;;;;;;;;;4938389;29;20074;-71
2021/12/20 13:56:07;;;;;;;14.63;12.50;;;;;;;;;;4940675;28;20401;-69
2021/12/20 13:58:33;;;;;;;13.95;12.43;;;;;;;;;;4942431;28;20054;-71
2021/12/20 14:00:59;;;;;;;14.15;12.00;;;;;;;;;;4935051;28;20043;-70
2021/12/20 14:03:25;;;;;;;13.63;12.23;;;;;;;;;;4944633;29;20515;-70
2021/12/20 14:05:51;;;;;;;13.55;12.07;;;;;;;;;;4934182;29;20055;-70
2021/12/20 14:08:23;;;;;;;13.77;12.38;;;;;;;;;;4934288;29;20427;-71
2021/12/20 14:10:50;;;;;;;16.30;12.55;;;;;;;;;;4932363;28;21163;-72
2021/12/20 14:13:18;;;;;;;15.65;12.10;;;;;;;;;;4943438;28;20720;-72
2021/12/20 14:16:02;;;;;;;14.33;12.77;;;;;;;;;;4939726;28;20050;-71
2021/12/20 14:18:33;;;;;;;13.30;12.00;;;;;;;;;;4929004;29;20090;-70
2021/12/20 14:21:03;;;;;;;15.35;12.18;;;;;;;;;;4939645;29;20058;-70
2021/12/20 14:23:49;;;;;;;16.83;12.10;;;;;;;;;;4943673;29;20043;-69
2021/12/20 14:26:23;;;;;;;13.32;11.98;;;;;;;;;;4936788;29;20051;-72
2021/12/20 14:28:52;;;;;;;12.70;11.43;;;;;;;;;;4936637;28;20478;-70
2021/12/20 14:31:34;;;;;;;12.57;11.27;;;;;;;;;;4939916;29;20069;-70
2021/12/20 14:34:02;;;;;;;14.27;12.63;;;;;;;;;;4942840;28;20034;-68
2021/12/20 14:36:36;;;;;;;17.42;13.45;;;;;;;;;;4947783;29;20039;-69
2021/12/20 14:39:39;;;;;;;15.98;14.32;;;;;;;;;;4942531;29;20211;-70
2021/12/20 14:42:05;;;;;;;14.75;10.98;;;;;;;;;;4909274;29;20056;-71